Accueil
METAR-TAF:

METAR-TAF

Aéroports :

Saint-Moritz, Suisse

Aéroport de Samedan-Engadin

latitude: 46-32-03N, longitude: 9-53-03E, altitude: 1707 m

Observation

Le bulletin a été fait il y a 39 minutes, à 02:50 UTC
Vent 3 kt de sud/sud-ouest
Température -4°C
Humidité 93%
Pression 1021 hPa
Visibilité 10 km ou plus
pas de nuages en-dessous de 1500 mètres et pas de cumulonimbus.

METAR: LSZS 190250Z AUTO 20003KT CAVOK M04/M05 Q1021

Heure: 05:29 (03:29 UTC)

Prévision

Le bulletin a été fait il y a 13 heures et 4 minutes, à 14:25 UTC
Prévision valable du 18 à 15 UTC au 18 à 24 UTC
Vent 10 kt de sud-ouest
Visibilité 10 km ou plus
pas de nuages en-dessous de 1500 mètres et pas de cumulonimbus.
Probabilité 30%
du 18 à 21 UTC au 18 à 24 UTC
Visibilité: 8000 m

TAF: LSZS 181425Z 1815/1824 23010KT CAVOK TX11/1815Z PROB30 1821/1824 8000 NSC

Observations et prévisions météorologiques de plus de 4000 aéroports (messages METAR et TAF).

Les stations disponibles sont représentées par des disques jaunes et rouges sur la carte.

Passer la souris dessus pour voir le nom de la station.

Cliquer dessus pour voir les observations et prévisions météorologiques.

Pour changer de carte: cliquez sur les boutons verts avec une croix noire pour zoomer, sur le bouton vert avec un tiret pour effectuer un zoom arrière, ou sur les flèches vertes pour les cartes adjacentes.


METAR-TAF: